Time;durP1;ratioP1;P1;durP2;ratioP2;P2;SDS_P1;SDS_P2;PMS_P1;PMS_P2;Temp;Humidity;BMP_temperature;BMP_pressure;BME280_temperature;BME280_humidity;BME280_pressure;Samples;Min_cycle;Max_cycle;Signal;HPM_P1;HPM_P2
2022/06/22 00:00:16;;;;;;;9.77;7.13;;;22.90;73.60;;;;;;4995900;28;20112;-70
2022/06/22 00:02:43;;;;;;;7.75;6.45;;;22.90;73.90;;;;;;4994828;28;20038;-69
2022/06/22 00:05:23;;;;;;;7.22;6.63;;;22.90;74.10;;;;;;4996661;28;20497;-69
2022/06/22 00:07:53;;;;;;;6.93;6.25;;;22.80;74.60;;;;;;4996929;28;20109;-69
2022/06/22 00:10:22;;;;;;;10.20;6.55;;;22.80;74.40;;;;;;4995567;28;20045;-69
2022/06/22 00:12:50;;;;;;;9.65;6.90;;;22.70;74.20;;;;;;4991660;28;20109;-69
2022/06/22 00:15:39;;;;;;;10.70;7.13;;;22.70;74.70;;;;;;4992729;28;20080;-69
2022/06/22 00:18:41;;;;;;;7.07;6.38;;;22.70;75.50;;;;;;4994482;28;20038;-69
2022/06/22 00:21:40;;;;;;;8.30;6.20;;;22.60;75.40;;;;;;4994690;28;20092;-68
2022/06/22 00:24:24;;;;;;;9.95;5.68;;;22.60;75.30;;;;;;4994418;28;20037;-69
2022/06/22 00:27:15;;;;;;;7.68;5.55;;;22.60;75.30;;;;;;4993965;28;20037;-69
2022/06/22 00:29:41;;;;;;;7.43;5.25;;;22.50;75.30;;;;;;4971557;28;20724;-69
2022/06/22 00:32:28;;;;;;;6.95;5.43;;;22.50;74.50;;;;;;4993507;28;20042;-69
2022/06/22 00:34:54;;;;;;;6.88;4.88;;;22.50;75.10;;;;;;4993464;28;20388;-70
2022/06/22 00:37:35;;;;;;;11.13;5.13;;;22.40;74.70;;;;;;4996096;28;20038;-69
2022/06/22 00:40:14;;;;;;;7.43;4.57;;;22.40;76.10;;;;;;4992936;28;20564;-70
2022/06/22 00:42:47;;;;;;;7.57;4.93;;;22.40;74.90;;;;;;4993692;28;20049;-67
2022/06/22 00:45:24;;;;;;;8.07;4.90;;;22.40;74.80;;;;;;4993110;28;20115;-69
2022/06/22 00:48:04;;;;;;;8.45;4.97;;;22.40;75.30;;;;;;4993149;28;20042;-69
2022/06/22 00:50:44;;;;;;;6.68;4.68;;;22.40;75.10;;;;;;4992843;28;20038;-69
2022/06/22 00:53:27;;;;;;;10.32;4.93;;;22.40;75.30;;;;;;4996494;28;20034;-68
2022/06/22 00:56:04;;;;;;;9.88;4.85;;;22.40;75.10;;;;;;4994663;28;20034;-69
2022/06/22 00:58:36;;;;;;;6.60;4.85;;;22.40;74.60;;;;;;4992407;28;20560;-68
2022/06/22 01:01:01;;;;;;;6.07;4.95;;;22.40;74.80;;;;;;4997385;28;20014;-69
2022/06/22 01:03:45;;;;;;;5.28;4.20;;;22.30;74.50;;;;;;4996599;28;20032;-69
2022/06/22 01:06:50;;;;;;;8.77;3.95;;;22.30;74.70;;;;;;4992053;28;20036;-69
2022/06/22 01:09:25;;;;;;;4.88;3.53;;;22.30;74.90;;;;;;4962528;28;20038;-68
2022/06/22 01:12:17;;;;;;;6.68;3.42;;;22.30;74.40;;;;;;4990743;28;20045;-69
2022/06/22 01:15:04;;;;;;;7.15;3.88;;;22.30;74.30;;;;;;4990325;28;20088;-69
2022/06/22 01:17:43;;;;;;;5.43;3.63;;;22.30;74.70;;;;;;4992434;28;20835;-68
2022/06/22 01:20:15;;;;;;;7.55;3.70;;;22.30;74.60;;;;;;4993003;28;20233;-70
2022/06/22 01:22:51;;;;;;;8.18;3.55;;;22.20;74.00;;;;;;4993956;28;20038;-69
2022/06/22 01:25:19;;;;;;;9.60;3.60;;;22.30;74.00;;;;;;4993409;28;20121;-69
2022/06/22 01:27:46;;;;;;;7.63;3.38;;;22.20;73.70;;;;;;4993600;28;20056;-70
2022/06/22 01:30:34;;;;;;;6.35;3.28;;;22.20;73.70;;;;;;4994206;28;20168;-67
2022/06/22 01:33:12;;;;;;;7.20;3.10;;;22.20;73.70;;;;;;4993208;28;20404;-70
2022/06/22 01:35:39;;;;;;;7.65;3.17;;;22.10;73.30;;;;;;4991418;28;20045;-69
2022/06/22 01:38:22;;;;;;;9.75;3.40;;;22.10;73.40;;;;;;4996621;28;20038;-69
2022/06/22 01:41:05;;;;;;;6.63;3.30;;;22.10;73.90;;;;;;4992790;28;20668;-69
2022/06/22 01:43:45;;;;;;;7.10;3.13;;;22.10;74.00;;;;;;4991207;28;20616;-68
2022/06/22 01:46:24;;;;;;;6.47;3.38;;;22.10;74.40;;;;;;4974783;28;20395;-69
2022/06/22 01:49:24;;;;;;;7.30;3.25;;;22.10;74.00;;;;;;4994107;28;20054;-69
2022/06/22 01:52:00;;;;;;;10.25;3.33;;;22.00;74.20;;;;;;4993376;28;20036;-69
2022/06/22 01:54:34;;;;;;;6.50;3.35;;;22.00;74.60;;;;;;4991967;28;20031;-69
2022/06/22 01:57:08;;;;;;;8.07;3.40;;;22.00;74.20;;;;;;4992932;28;20267;-69
2022/06/22 01:59:42;;;;;;;11.30;3.42;;;22.00;74.00;;;;;;4993354;28;20125;-69
2022/06/22 02:02:15;;;;;;;7.68;3.45;;;21.90;73.70;;;;;;4994256;28;20034;-69
2022/06/22 02:04:58;;;;;;;5.18;3.10;;;21.90;73.90;;;;;;4991239;28;20121;-68
2022/06/22 02:07:46;;;;;;;5.95;3.22;;;21.90;74.40;;;;;;4994208;28;20706;-69
2022/06/22 02:10:26;;;;;;;9.00;3.30;;;21.90;74.70;;;;;;4994438;28;20038;-68
2022/06/22 02:13:33;;;;;;;6.65;3.40;;;21.80;74.40;;;;;;4993832;28;20180;-68
2022/06/22 02:16:26;;;;;;;10.05;4.15;;;21.80;74.80;;;;;;4996186;28;20084;-69
2022/06/22 02:19:12;;;;;;;8.13;3.47;;;21.70;74.60;;;;;;4995500;28;20080;-68
2022/06/22 02:21:46;;;;;;;7.28;3.17;;;21.70;75.30;;;;;;4992729;28;21195;-69
2022/06/22 02:24:19;;;;;;;9.93;3.72;;;21.70;74.80;;;;;;4993995;28;20445;-68
2022/06/22 02:26:59;;;;;;;8.13;3.30;;;21.60;74.90;;;;;;4991309;28;20038;-68
2022/06/22 02:29:32;;;;;;;9.00;3.78;;;21.60;75.00;;;;;;4994186;28;20113;-69
2022/06/22 02:32:01;;;;;;;7.68;3.80;;;21.60;74.90;;;;;;4992701;28;20619;-69
2022/06/22 02:34:28;;;;;;;9.57;3.47;;;21.50;75.10;;;;;;4990603;28;20045;-69
2022/06/22 02:36:54;;;;;;;9.15;3.70;;;21.50;75.20;;;;;;4989375;28;20057;-69
2022/06/22 02:39:24;;;;;;;10.02;3.75;;;21.50;75.40;;;;;;4991515;28;20497;-68
2022/06/22 02:44:40;;;;;;;6.80;4.05;;;21.40;75.50;;;;;;4993022;28;20847;-68
2022/06/22 02:47:24;;;;;;;6.55;4.32;;;21.50;75.20;;;;;;4993190;28;20034;-68
2022/06/22 02:49:58;;;;;;;7.75;4.03;;;21.50;75.60;;;;;;4990065;28;20132;-69
2022/06/22 02:52:31;;;;;;;9.00;4.28;;;21.50;76.10;;;;;;4993071;28;20046;-68
2022/06/22 02:54:59;;;;;;;7.65;4.43;;;21.50;75.10;;;;;;4975370;28;20177;-69
2022/06/22 02:57:33;;;;;;;7.90;4.32;;;21.50;75.20;;;;;;4990238;28;20042;-67
2022/06/22 03:00:00;;;;;;;9.75;4.55;;;21.50;75.30;;;;;;4993078;28;20034;-69
2022/06/22 03:02:26;;;;;;;9.48;4.60;;;21.50;75.50;;;;;;4994200;28;20034;-68
2022/06/22 03:04:56;;;;;;;12.15;4.30;;;21.50;75.60;;;;;;4990917;28;20067;-68
2022/06/22 03:07:22;;;;;;;9.88;4.50;;;21.50;75.50;;;;;;4992922;28;20100;-69
2022/06/22 03:09:49;;;;;;;8.23;4.57;;;21.50;75.50;;;;;;4993655;28;20472;-69
2022/06/22 03:12:15;;;;;;;7.43;4.45;;;21.40;75.40;;;;;;4991113;28;20398;-68
2022/06/22 03:14:53;;;;;;;9.13;4.88;;;21.40;75.40;;;;;;4986605;28;20461;-68
2022/06/22 03:17:23;;;;;;;6.95;4.78;;;21.40;76.10;;;;;;4990206;28;20536;-68
2022/06/22 03:20:04;;;;;;;7.68;4.38;;;21.40;75.80;;;;;;4991377;28;20046;-69
2022/06/22 03:22:43;;;;;;;10.55;5.00;;;21.30;76.10;;;;;;4972747;28;20112;-69
2022/06/22 03:25:14;;;;;;;10.20;4.97;;;21.40;76.00;;;;;;4992964;28;20068;-68
2022/06/22 03:27:44;;;;;;;9.35;4.70;;;21.40;76.30;;;;;;4991659;28;20081;-68
2022/06/22 03:30:14;;;;;;;8.45;4.55;;;21.40;76.10;;;;;;4991405;28;20222;-69
2022/06/22 03:32:50;;;;;;;8.00;4.75;;;21.40;76.00;;;;;;4990289;28;20081;-68
2022/06/22 03:35:38;;;;;;;7.63;4.45;;;21.40;76.20;;;;;;4990500;28;20038;-69
2022/06/22 03:38:15;;;;;;;10.75;4.75;;;21.30;76.10;;;;;;4992656;28;20042;-69
2022/06/22 03:40:50;;;;;;;12.35;5.00;;;21.20;76.00;;;;;;4993213;28;20681;-69
2022/06/22 03:43:19;;;;;;;;;;;21.20;76.30;;;;;;4994811;28;20041;-69
2022/06/22 03:45:54;;;;;;;8.68;3.90;;;21.20;76.10;;;;;;4991570;28;19913;-68
2022/06/22 03:48:30;;;;;;;10.75;4.20;;;21.10;76.50;;;;;;4992821;28;20136;-67
2022/06/22 03:51:18;;;;;;;7.50;4.35;;;21.20;76.60;;;;;;4992223;28;20367;-68
2022/06/22 03:53:51;;;;;;;9.60;3.70;;;21.20;77.20;;;;;;4992091;28;20104;-68
2022/06/22 03:56:26;;;;;;;7.90;3.53;;;21.10;76.50;;;;;;4993992;28;20035;-69
2022/06/22 03:58:52;;;;;;;;;;;21.20;76.80;;;;;;4989606;28;20035;-69
2022/06/22 04:01:19;;;;;;;6.88;3.08;;;21.20;76.40;;;;;;4995285;28;19921;-67
2022/06/22 04:03:45;;;;;;;6.93;3.47;;;21.20;75.90;;;;;;4992656;28;20474;-68
2022/06/22 04:06:26;;;;;;;6.50;3.47;;;21.20;76.10;;;;;;4993871;28;20037;-69
2022/06/22 04:08:53;;;;;;;5.97;3.60;;;21.10;76.80;;;;;;4992780;28;20073;-68
2022/06/22 04:11:36;;;;;;;10.73;3.38;;;21.20;76.50;;;;;;4992248;28;20478;-68
2022/06/22 04:14:17;;;;;;;5.60;3.30;;;21.10;76.90;;;;;;4991443;28;20034;-68
2022/06/22 04:16:48;;;;;;;7.80;3.38;;;21.10;76.90;;;;;;4989397;28;20073;-68
2022/06/22 04:19:31;;;;;;;8.45;3.50;;;21.10;76.60;;;;;;4995436;28;20036;-68
2022/06/22 04:22:06;;;;;;;10.63;3.40;;;21.10;76.70;;;;;;4994270;28;20153;-68
2022/06/22 04:24:47;;;;;;;7.88;3.35;;;21.10;76.80;;;;;;4992501;28;20501;-68
2022/06/22 04:27:35;;;;;;;6.85;3.15;;;21.10;76.60;;;;;;4995458;28;20045;-68
2022/06/22 04:30:20;;;;;;;8.15;3.28;;;21.10;76.80;;;;;;4997269;28;20060;-69
2022/06/22 04:32:53;;;;;;;9.77;3.10;;;21.10;76.50;;;;;;4998088;28;20037;-69
2022/06/22 04:35:30;;;;;;;6.50;2.90;;;21.10;76.30;;;;;;4995597;28;20045;-68
2022/06/22 04:38:05;;;;;;;7.28;3.08;;;21.10;76.80;;;;;;4993705;28;20129;-68
2022/06/22 04:40:35;;;;;;;12.15;3.15;;;21.10;76.40;;;;;;4995151;28;20085;-68
2022/06/22 04:43:03;;;;;;;8.85;3.40;;;21.10;76.50;;;;;;4998001;28;20038;-68
2022/06/22 04:45:36;;;;;;;10.88;3.40;;;21.10;76.20;;;;;;4995531;28;20038;-68
2022/06/22 04:48:21;;;;;;;7.93;2.97;;;21.10;76.10;;;;;;4996495;28;20623;-69
2022/06/22 04:50:56;;;;;;;13.23;3.63;;;21.10;76.30;;;;;;4994059;28;20409;-68
2022/06/22 04:53:27;;;;;;;8.07;2.92;;;21.20;76.10;;;;;;4991977;28;20038;-69
2022/06/22 04:55:55;;;;;;;10.05;3.33;;;21.20;76.00;;;;;;4994220;28;20034;-68
2022/06/22 04:58:40;;;;;;;12.45;3.20;;;21.20;75.90;;;;;;4996933;28;20049;-69
2022/06/22 05:01:06;;;;;;;;;;;21.20;76.30;;;;;;4997423;28;20038;-69
2022/06/22 05:03:33;;;;;;;8.77;2.80;;;21.30;76.00;;;;;;4998949;28;19955;-69
2022/06/22 05:06:06;;;;;;;8.77;2.78;;;21.30;75.80;;;;;;4979673;28;20046;-68
2022/06/22 05:08:40;;;;;;;6.90;2.78;;;21.40;76.00;;;;;;4994395;28;20037;-69
2022/06/22 05:11:17;;;;;;;7.57;3.08;;;21.40;76.00;;;;;;4997918;28;20597;-69
2022/06/22 05:13:47;;;;;;;8.45;2.85;;;21.40;76.10;;;;;;4995515;28;20140;-68
2022/06/22 05:16:20;;;;;;;9.25;3.10;;;21.50;76.00;;;;;;4993873;28;20038;-69
2022/06/22 05:18:47;;;;;;;14.55;3.38;;;21.50;75.90;;;;;;4996375;28;20700;-69
2022/06/22 05:21:16;;;;;;;13.27;3.20;;;21.50;75.70;;;;;;4996237;28;20032;-69
2022/06/22 05:23:47;;;;;;;7.43;2.80;;;21.60;75.80;;;;;;4994012;28;20045;-68
2022/06/22 05:26:18;;;;;;;6.07;2.97;;;21.60;76.10;;;;;;4994728;28;20054;-68
2022/06/22 05:28:54;;;;;;;8.63;2.95;;;21.60;76.00;;;;;;4997898;28;20041;-67
2022/06/22 05:31:29;;;;;;;8.68;3.28;;;21.70;76.60;;;;;;4996608;28;20037;-68
2022/06/22 05:34:01;;;;;;;8.85;3.38;;;21.60;76.40;;;;;;4996874;28;20031;-68
2022/06/22 05:36:30;;;;;;;10.88;3.17;;;21.70;76.60;;;;;;4993490;28;20034;-68
2022/06/22 05:38:58;;;;;;;7.28;3.50;;;21.60;76.50;;;;;;4996186;28;20061;-68
2022/06/22 05:41:36;;;;;;;11.10;3.50;;;21.60;77.20;;;;;;4994685;28;20030;-68
2022/06/22 05:44:08;;;;;;;9.98;3.55;;;21.60;78.40;;;;;;4993042;28;20176;-68
2022/06/22 05:46:34;;;;;;;10.45;3.20;;;21.60;78.30;;;;;;4995693;28;20429;-67
2022/06/22 05:48:59;;;;;;;8.35;3.40;;;21.70;77.70;;;;;;4995855;28;20034;-68
2022/06/22 05:51:40;;;;;;;8.85;3.90;;;21.70;77.40;;;;;;4996375;28;20027;-68
2022/06/22 05:54:17;;;;;;;7.05;3.45;;;21.70;78.20;;;;;;4992933;28;20065;-68
2022/06/22 05:56:47;;;;;;;9.68;3.63;;;21.70;78.00;;;;;;4994882;28;20097;-67
2022/06/22 05:59:30;;;;;;;8.57;3.42;;;21.70;79.10;;;;;;4994608;28;20034;-68
2022/06/22 06:01:59;;;;;;;12.93;3.70;;;21.80;79.10;;;;;;4993761;28;20121;-68
2022/06/22 06:05:00;;;;;;;10.80;3.85;;;21.80;78.60;;;;;;4996780;28;20458;-69
2022/06/22 06:07:43;;;;;;;6.43;3.67;;;21.90;79.30;;;;;;4993604;28;20030;-68
2022/06/22 06:10:21;;;;;;;8.93;3.70;;;22.00;78.20;;;;;;4994548;28;20034;-68
2022/06/22 06:12:56;;;;;;;6.35;3.50;;;22.00;78.40;;;;;;4994827;28;20026;-68
2022/06/22 06:15:23;;;;;;;9.25;3.63;;;22.10;78.30;;;;;;4995036;28;20121;-68
2022/06/22 06:17:53;;;;;;;10.23;3.38;;;22.10;78.00;;;;;;4994066;28;20054;-68
2022/06/22 06:20:23;;;;;;;8.70;3.47;;;22.10;78.00;;;;;;4993529;28;20826;-68
2022/06/22 06:22:54;;;;;;;10.18;3.58;;;22.10;77.80;;;;;;4994824;28;20517;-68
2022/06/22 06:28:17;;;;;;;9.15;3.65;;;22.10;77.30;;;;;;4995710;28;20049;-68
2022/06/22 06:30:46;;;;;;;14.15;4.00;;;22.10;77.40;;;;;;4994426;28;20037;-68
2022/06/22 06:33:23;;;;;;;8.88;3.40;;;22.00;77.40;;;;;;4993809;28;20045;-68
2022/06/22 06:35:53;;;;;;;7.85;3.60;;;22.10;78.00;;;;;;4995198;28;20042;-68
2022/06/22 06:38:44;;;;;;;7.82;3.58;;;22.00;77.70;;;;;;4993335;28;20034;-67
2022/06/22 06:41:09;;;;;;;7.40;3.42;;;22.00;77.70;;;;;;4996764;28;20130;-67
2022/06/22 06:43:58;;;;;;;8.95;4.00;;;22.10;77.70;;;;;;4998493;28;20113;-68
2022/06/22 06:46:38;;;;;;;8.75;3.55;;;22.10;78.00;;;;;;4997296;28;20038;-67
2022/06/22 06:49:12;;;;;;;9.32;3.60;;;22.10;77.70;;;;;;4977353;28;20065;-68
2022/06/22 06:51:43;;;;;;;6.70;3.60;;;22.10;77.70;;;;;;4994856;28;20080;-68
2022/06/22 06:54:28;;;;;;;7.40;3.58;;;22.20;77.50;;;;;;4991479;28;20030;-68
2022/06/22 06:57:02;;;;;;;;;;;22.20;77.90;;;;;;4994397;28;20437;-68
2022/06/22 06:59:30;;;;;;;8.45;3.13;;;22.20;77.30;;;;;;4993681;28;20076;-68
2022/06/22 07:02:02;;;;;;;9.63;3.40;;;22.20;76.90;;;;;;4995400;28;20243;-67
2022/06/22 07:04:32;;;;;;;9.70;3.80;;;22.30;77.50;;;;;;4991843;28;20042;-68
2022/06/22 07:07:21;;;;;;;8.00;3.67;;;22.30;77.50;;;;;;4996961;28;20042;-67
2022/06/22 07:09:49;;;;;;;8.27;3.63;;;22.30;77.50;;;;;;4994101;28;20413;-67
2022/06/22 07:12:33;;;;;;;12.70;4.03;;;22.40;77.50;;;;;;4993897;28;20041;-67
2022/06/22 07:15:03;;;;;;;9.82;3.50;;;22.40;77.60;;;;;;4993160;28;20042;-68
2022/06/22 07:17:32;;;;;;;8.20;3.67;;;22.40;77.60;;;;;;4996644;28;20143;-67
2022/06/22 07:20:13;;;;;;;7.97;4.03;;;22.50;78.40;;;;;;4995093;28;20038;-68
2022/06/22 07:22:43;;;;;;;6.80;3.45;;;22.50;78.10;;;;;;4983491;28;20121;-68
2022/06/22 07:25:24;;;;;;;9.50;3.60;;;22.60;78.00;;;;;;4994423;28;20034;-67
2022/06/22 07:27:57;;;;;;;7.30;3.40;;;22.70;78.40;;;;;;4992639;28;20042;-68
2022/06/22 07:30:42;;;;;;;10.85;3.90;;;22.70;79.20;;;;;;4996882;28;20045;-68
2022/06/22 07:33:17;;;;;;;13.88;3.78;;;22.80;78.90;;;;;;4993762;28;20037;-68
2022/06/22 07:35:50;;;;;;;8.68;3.97;;;22.90;78.00;;;;;;4994572;28;20089;-68
2022/06/22 07:38:46;;;;;;;7.07;3.97;;;22.90;78.30;;;;;;4995694;28;20429;-68
2022/06/22 07:41:24;;;;;;;10.68;3.67;;;22.90;78.20;;;;;;4992267;28;20045;-68
2022/06/22 07:43:57;;;;;;;9.65;4.00;;;23.00;77.90;;;;;;4993538;28;20042;-67
2022/06/22 07:46:49;;;;;;;9.60;3.88;;;23.00;77.70;;;;;;4995473;28;20116;-68
2022/06/22 07:49:29;;;;;;;6.88;3.90;;;23.10;77.40;;;;;;4996941;28;20030;-68
2022/06/22 07:51:57;;;;;;;8.30;4.05;;;23.10;77.70;;;;;;4992567;28;20038;-68
2022/06/22 07:54:39;;;;;;;12.10;4.13;;;23.10;76.80;;;;;;4998261;28;20030;-68
2022/06/22 07:57:28;;;;;;;11.70;4.05;;;23.10;77.30;;;;;;4996153;28;20061;-66
2022/06/22 08:00:22;;;;;;;10.95;4.20;;;23.10;77.10;;;;;;4993877;28;20418;-68
2022/06/22 08:03:42;;;;;;;13.60;4.47;;;23.10;77.20;;;;;;4994841;28;20045;-67
2022/06/22 08:06:14;;;;;;;8.13;3.97;;;23.10;78.40;;;;;;4997106;28;20125;-68
2022/06/22 08:08:53;;;;;;;7.63;4.22;;;23.10;77.60;;;;;;4996467;28;20037;-68
2022/06/22 08:11:37;;;;;;;8.80;4.50;;;23.20;78.30;;;;;;4997432;28;20049;-68
2022/06/22 08:14:06;;;;;;;7.15;4.00;;;23.20;76.80;;;;;;4993834;28;20037;-68
2022/06/22 08:16:36;;;;;;;9.27;4.20;;;23.30;76.80;;;;;;4996358;28;20045;-68
2022/06/22 08:19:04;;;;;;;6.88;4.50;;;23.30;76.50;;;;;;4997516;28;20038;-68
2022/06/22 08:21:31;;;;;;;9.63;4.80;;;23.40;76.50;;;;;;4997991;28;20042;-68
2022/06/22 08:23:58;;;;;;;11.93;4.63;;;23.40;76.60;;;;;;4995925;28;20597;-68
2022/06/22 08:26:30;;;;;;;13.40;5.03;;;23.40;76.60;;;;;;4994268;28;20037;-69
2022/06/22 08:28:57;;;;;;;7.72;4.70;;;23.50;76.80;;;;;;4998005;28;20405;-68
2022/06/22 08:31:34;;;;;;;10.38;4.75;;;23.60;76.80;;;;;;4997532;28;20027;-68
2022/06/22 08:34:01;;;;;;;8.90;4.93;;;23.60;76.50;;;;;;4995918;28;20034;-68
2022/06/22 08:36:44;;;;;;;10.05;4.90;;;23.70;75.80;;;;;;4996597;28;20084;-68
2022/06/22 08:39:16;;;;;;;13.30;5.00;;;23.80;75.30;;;;;;4997333;28;20463;-68
2022/06/22 08:42:19;;;;;;;10.15;4.97;;;23.80;75.10;;;;;;4995634;28;20022;-69
2022/06/22 08:45:15;;;;;;;9.50;4.93;;;23.90;74.40;;;;;;4996513;28;20584;-68
2022/06/22 08:47:53;;;;;;;8.43;4.55;;;23.90;74.00;;;;;;4995498;28;20030;-69
2022/06/22 08:50:52;;;;;;;8.48;4.93;;;23.90;73.80;;;;;;4997350;28;20044;-68
2022/06/22 08:53:55;;;;;;;8.40;4.70;;;24.00;73.60;;;;;;4995740;28;20038;-69
2022/06/22 08:56:44;;;;;;;7.20;4.50;;;24.00;73.10;;;;;;4998019;28;20055;-68
2022/06/22 08:59:28;;;;;;;8.18;4.65;;;24.00;73.30;;;;;;4994950;28;20038;-67
2022/06/22 09:02:31;;;;;;;7.32;4.47;;;24.10;73.60;;;;;;4993157;28;20066;-68
2022/06/22 09:05:08;;;;;;;6.85;4.60;;;24.10;74.00;;;;;;4997169;28;20518;-69
2022/06/22 09:07:37;;;;;;;8.43;4.35;;;24.10;74.30;;;;;;4998915;28;20123;-69
2022/06/22 09:10:30;;;;;;;12.30;5.00;;;24.10;74.00;;;;;;4996921;28;20034;-68
2022/06/22 09:13:10;;;;;;;10.60;4.80;;;24.10;74.30;;;;;;4995297;28;20035;-68
2022/06/22 09:15:48;;;;;;;6.65;4.28;;;24.20;74.00;;;;;;4996155;28;20026;-69
2022/06/22 09:18:21;;;;;;;10.80;4.78;;;24.20;74.30;;;;;;4995026;28;20597;-68
2022/06/22 09:21:24;;;;;;;8.32;5.30;;;24.20;73.80;;;;;;4994974;28;20064;-69
2022/06/22 09:24:06;;;;;;;7.30;4.78;;;24.20;73.30;;;;;;4980145;28;20129;-69
2022/06/22 09:26:48;;;;;;;12.55;5.28;;;24.20;73.50;;;;;;4992006;28;20497;-68
2022/06/22 09:29:26;;;;;;;15.15;5.43;;;24.20;74.10;;;;;;4997181;28;20401;-68
2022/06/22 09:31:54;;;;;;;9.32;4.95;;;24.30;73.80;;;;;;4977958;28;20559;-68
2022/06/22 09:34:44;;;;;;;11.55;4.97;;;24.20;73.40;;;;;;4996008;28;20049;-69
2022/06/22 09:37:34;;;;;;;14.20;5.35;;;24.30;73.10;;;;;;4996675;28;20121;-69
2022/06/22 09:40:36;;;;;;;10.32;5.13;;;24.30;73.10;;;;;;4995162;28;20120;-69
2022/06/22 09:43:04;;;;;;;5.30;4.47;;;24.30;73.20;;;;;;4966580;28;20038;-69
2022/06/22 09:46:02;;;;;;;7.13;4.70;;;24.30;73.20;;;;;;4995286;28;20034;-69
2022/06/22 09:48:53;;;;;;;11.18;4.95;;;24.30;73.30;;;;;;4993610;28;20034;-69
2022/06/22 09:51:38;;;;;;;10.18;4.68;;;24.30;73.20;;;;;;4971502;28;20124;-69
2022/06/22 09:54:04;;;;;;;;;;;24.30;73.20;;;;;;4993258;28;20046;-68
2022/06/22 09:57:12;;;;;;;7.43;4.50;;;24.30;73.00;;;;;;4993955;28;20402;-69
2022/06/22 10:00:15;;;;;;;8.82;4.82;;;24.20;72.80;;;;;;4995309;28;20092;-68
2022/06/22 10:03:08;;;;;;;12.90;5.00;;;24.20;73.50;;;;;;4964243;28;20221;-69
2022/06/22 10:05:39;;;;;;;7.47;4.75;;;24.10;74.00;;;;;;4993810;28;20094;-69
2022/06/22 10:08:29;;;;;;;9.43;4.75;;;24.10;74.00;;;;;;4997113;28;20040;-68
2022/06/22 10:11:22;;;;;;;9.40;4.50;;;24.00;74.30;;;;;;4995705;28;20572;-69
2022/06/22 10:14:26;;;;;;;9.15;4.57;;;24.00;74.20;;;;;;4994921;28;20412;-68
2022/06/22 10:17:45;;;;;;;9.90;4.55;;;23.90;74.00;;;;;;4996390;28;20133;-69
2022/06/22 10:20:20;;;;;;;9.20;4.22;;;23.90;73.70;;;;;;4902740;29;20109;-69
2022/06/22 10:23:09;;;;;;;10.43;4.28;;;23.80;73.80;;;;;;4984800;28;20030;-69
2022/06/22 10:26:17;;;;;;;9.57;4.90;;;23.80;74.40;;;;;;4996005;28;20026;-69
2022/06/22 10:28:45;;;;;;;10.02;4.15;;;23.70;74.60;;;;;;4975151;28;20567;-68
2022/06/22 10:31:34;;;;;;;10.07;4.05;;;23.60;74.80;;;;;;4992790;28;20247;-69
2022/06/22 10:34:33;;;;;;;8.70;4.00;;;23.50;75.40;;;;;;4993794;28;20079;-69
2022/06/22 10:37:37;;;;;;;10.63;3.70;;;23.50;75.30;;;;;;4994079;28;20042;-68
2022/06/22 10:46:06;;;;;;;8.02;2.95;;;23.30;74.40;;;;;;4993925;28;20045;-68
2022/06/22 10:48:53;;;;;;;12.07;3.13;;;23.30;74.00;;;;;;4993459;28;20045;-68
2022/06/22 10:51:21;;;;;;;9.07;3.17;;;23.20;74.60;;;;;;4994887;28;20109;-68
2022/06/22 10:53:50;;;;;;;9.00;3.33;;;23.20;74.40;;;;;;4994599;28;20101;-67
2022/06/22 10:56:37;;;;;;;10.73;2.97;;;23.10;74.40;;;;;;4991059;28;20033;-68
2022/06/22 10:59:24;;;;;;;10.20;2.90;;;23.00;74.20;;;;;;4994428;28;20042;-67
2022/06/22 11:02:33;;;;;;;10.35;2.88;;;22.90;74.20;;;;;;4993623;28;20517;-65
2022/06/22 11:05:17;;;;;;;14.63;2.72;;;22.90;74.40;;;;;;4994871;28;20083;-67
2022/06/22 11:08:05;;;;;;;9.83;2.63;;;22.80;74.60;;;;;;4995842;28;20042;-68
2022/06/22 11:10:44;;;;;;;9.05;2.65;;;22.70;74.80;;;;;;4992551;28;20030;-67
2022/06/22 11:13:41;;;;;;;10.95;2.50;;;22.60;75.80;;;;;;4995666;28;20556;-68
2022/06/22 11:16:31;;;;;;;11.00;2.50;;;22.60;76.00;;;;;;4993485;28;20037;-65
2022/06/22 11:19:35;;;;;;;9.35;2.40;;;22.50;76.40;;;;;;4993737;28;20092;-67
2022/06/22 11:22:21;;;;;;;11.05;2.85;;;22.40;76.60;;;;;;4993622;28;20030;-68
2022/06/22 11:24:58;;;;;;;8.73;2.90;;;22.40;77.30;;;;;;4981640;28;20034;-68
2022/06/22 11:33:35;;;;;;;8.68;2.53;;;22.30;77.70;;;;;;4997180;28;20455;-68
2022/06/22 11:36:11;;;;;;;11.05;2.90;;;22.30;78.00;;;;;;4998769;28;20031;-69
2022/06/22 11:38:43;;;;;;;8.98;2.25;;;22.30;77.70;;;;;;4995724;28;20061;-69
2022/06/22 11:41:30;;;;;;;7.78;2.55;;;22.30;77.90;;;;;;4997333;28;20130;-68
2022/06/22 11:44:17;;;;;;;10.57;2.55;;;22.30;78.70;;;;;;4998965;28;20538;-68
2022/06/22 11:46:50;;;;;;;8.77;2.40;;;22.30;78.30;;;;;;4998434;28;20231;-68
2022/06/22 11:49:40;;;;;;;9.18;2.40;;;22.40;78.00;;;;;;4998350;28;20088;-69
2022/06/22 11:52:26;;;;;;;8.00;2.25;;;22.40;78.70;;;;;;4997458;28;20030;-68
2022/06/22 11:54:51;;;;;;;;;;;22.40;78.90;;;;;;4999157;28;20483;-67
2022/06/22 11:57:29;;;;;;;7.80;2.15;;;22.50;78.20;;;;;;4995778;28;20012;-69
2022/06/22 12:00:09;;;;;;;9.80;2.38;;;22.50;78.10;;;;;;4998219;28;20035;-68
2022/06/22 12:03:09;;;;;;;9.65;2.42;;;22.50;78.20;;;;;;4996829;28;20041;-69
2022/06/22 12:06:07;;;;;;;9.00;2.70;;;22.50;78.90;;;;;;4997359;28;20023;-68
2022/06/22 12:08:33;;;;;;;6.40;2.17;;;22.60;78.90;;;;;;4967197;28;20031;-69
2022/06/22 12:11:17;;;;;;;7.80;2.80;;;22.60;78.80;;;;;;5000577;28;20060;-69
2022/06/22 12:17:21;;;;;;;17.50;12.70;;;22.70;78.70;;;;;;4985585;28;20049;-69
2022/06/22 12:19:56;;;;;;;11.35;3.45;;;22.90;79.00;;;;;;5000607;28;20022;-68
2022/06/22 12:22:49;;;;;;;8.48;2.50;;;23.00;78.80;;;;;;4999061;28;20576;-68
2022/06/22 12:25:36;;;;;;;8.05;2.55;;;23.10;78.10;;;;;;5000843;28;20030;-68
2022/06/22 12:28:02;;;;;;;8.50;2.25;;;23.10;78.00;;;;;;4999920;28;20038;-68
2022/06/22 12:30:50;;;;;;;10.55;2.05;;;23.20;77.90;;;;;;5000844;28;20030;-68
2022/06/22 12:33:45;;;;;;;8.38;2.70;;;23.20;77.90;;;;;;5000201;28;20043;-68
2022/06/22 12:36:14;;;;;;;9.48;2.20;;;23.20;77.10;;;;;;4978007;28;20043;-68
2022/06/22 12:39:06;;;;;;;7.15;2.50;;;23.20;77.40;;;;;;4998932;28;20409;-69
2022/06/22 12:41:46;;;;;;;5.07;1.60;;;23.20;77.30;;;;;;5000643;28;20497;-69
2022/06/22 12:44:39;;;;;;;6.93;1.95;;;23.30;77.70;;;;;;4999887;28;20125;-69
2022/06/22 12:47:27;;;;;;;8.85;2.03;;;23.30;78.10;;;;;;4999141;28;20034;-68
2022/06/22 12:50:04;;;;;;;7.95;2.25;;;23.40;78.20;;;;;;5000393;28;20089;-69
2022/06/22 12:52:41;;;;;;;7.22;2.30;;;23.40;77.20;;;;;;4998397;28;20117;-68
2022/06/22 12:55:13;;;;;;;7.05;2.35;;;23.50;76.70;;;;;;5000689;28;20438;-68
2022/06/22 12:57:45;;;;;;;8.07;2.35;;;23.60;76.20;;;;;;5000636;28;20026;-69
2022/06/22 13:00:18;;;;;;;9.88;2.35;;;23.60;75.60;;;;;;5000074;28;20039;-68
2022/06/22 13:02:46;;;;;;;6.68;1.90;;;23.70;75.60;;;;;;4990211;28;20521;-68
2022/06/22 13:05:17;;;;;;;10.15;2.08;;;23.70;76.10;;;;;;4999309;28;20038;-68
2022/06/22 13:07:47;;;;;;;6.53;2.22;;;23.80;76.10;;;;;;4997379;28;20030;-68
2022/06/22 13:10:16;;;;;;;5.45;2.20;;;23.80;76.60;;;;;;4996546;28;20046;-68
2022/06/22 13:13:03;;;;;;;7.50;2.28;;;23.90;77.00;;;;;;4992620;28;20034;-68
2022/06/22 13:15:40;;;;;;;8.18;2.65;;;23.80;77.30;;;;;;4996096;28;20113;-69
2022/06/22 13:18:50;;;;;;;5.13;2.35;;;23.90;77.20;;;;;;4995766;28;20089;-68
2022/06/22 13:21:25;;;;;;;12.50;2.75;;;23.90;76.80;;;;;;4979044;28;20061;-67
2022/06/22 13:24:15;;;;;;;8.50;2.30;;;23.90;76.50;;;;;;4996514;28;20030;-69
2022/06/22 13:27:00;;;;;;;7.20;2.30;;;23.90;76.40;;;;;;4994516;28;20072;-68
2022/06/22 13:29:52;;;;;;;11.40;2.80;;;23.90;76.40;;;;;;4996895;28;20049;-68
2022/06/22 13:32:21;;;;;;;7.55;2.00;;;23.90;77.20;;;;;;4995685;28;20034;-68
2022/06/22 13:34:52;;;;;;;9.50;2.10;;;24.00;76.80;;;;;;4991661;28;20062;-68
2022/06/22 13:37:27;;;;;;;9.32;2.40;;;24.00;76.00;;;;;;4994533;28;20038;-68
2022/06/22 13:40:14;;;;;;;8.32;2.08;;;24.00;76.60;;;;;;4994495;28;20029;-68
2022/06/22 13:42:55;;;;;;;7.68;2.10;;;24.10;76.00;;;;;;4995764;28;20044;-69
2022/06/22 13:45:26;;;;;;;6.97;1.98;;;24.20;75.70;;;;;;4995241;28;20031;-68
2022/06/22 13:48:30;;;;;;;5.53;1.90;;;24.20;75.10;;;;;;4994487;28;20029;-68
2022/06/22 13:51:20;;;;;;;8.65;2.10;;;24.30;75.90;;;;;;4950328;28;20041;-68
2022/06/22 13:54:15;;;;;;;7.68;1.80;;;24.40;74.40;;;;;;4993245;28;20461;-69
2022/06/22 13:57:07;;;;;;;4.60;1.35;;;24.40;74.60;;;;;;4995542;28;20042;-68
2022/06/22 13:59:54;;;;;;;6.40;1.60;;;24.50;74.80;;;;;;4997532;28;20085;-68
2022/06/22 14:02:44;;;;;;;4.88;1.60;;;24.60;74.80;;;;;;4994846;28;20482;-68
2022/06/22 14:05:37;;;;;;;6.00;2.20;;;24.60;74.40;;;;;;4993591;28;20113;-68
2022/06/22 14:08:08;;;;;;;7.63;2.45;;;24.70;74.60;;;;;;4994245;28;20488;-68